Weather at Szorce Airstrip

Public forecast

Using degrees Celsius for public forecast. Weather courtesy of forecast.io.

Closest aviation weather report (METAR) to Szorce Airstrip

Report is more than 2 hours old.

Closest report is Hrodna Airport, 52.9 nm (97.9 km) ENE.

2024/07/14 13:00 (retrieved 5 hours ago)

UMMG 141300Z 34002MPS 9999 BKN020 OVC066 22/18 Q1014 NOSIG

Closest aviation forecast (TAF) to Szorce Airstrip

Closest forecast is Modlin Airport, 88.8 nm (164.4 km) WSW.

2024/07/14 18:00 (retrieved 11 minutes ago)

TAF EPMO 141730Z 1418/1518 VRB02KT CAVOK PROB30 1502/1505 BKN012